Central Virginia Flyers


Central Virginia Flyers is a 10 member flying club based in Richmond, VA at Hanover County Airport (KOFP). We own N787AT, a 1977 Cessna 172 with 180hp conversion. If you are interested in membership, please contact Brenton at brenton@cvflyers.org.


Aviation Digital Data Service (ADDS)

Output produced by METARs form (0306 UTC 23 November 2014)
found at http://aviationweather.gov/adds/metars/
 
KOFP 230254Z AUTO 18006KT 10SM CLR 03/M08 A3034 RMK AO2 SLP275 T00331078 56005
KRIC 230254Z 19004KT 10SM SCT250 00/M07 A3033 RMK AO2 SLP279 T00001072 55003
KRIC 222326Z 2300/2324 20007KT P6SM BKN250 
     FM230600 21005KT P6SM BKN200 
     FM231300 20007KT P6SM SCT040 BKN120 
     FM232000 20010KT P6SM -RA SCT030 OVC060